createdAt,value
2019-03-20T00:00:01.761Z,9.83
2019-03-20T00:02:29.557Z,14.30
2019-03-20T00:04:59.253Z,11.47
2019-03-20T00:07:27.063Z,22.07
2019-03-20T00:09:54.906Z,9.55
2019-03-20T00:12:22.727Z,11.95
2019-03-20T00:14:50.517Z,12.45
2019-03-20T00:17:18.420Z,11.37
2019-03-20T00:19:46.185Z,9.80
2019-03-20T00:22:14.006Z,13.18
2019-03-20T00:24:41.785Z,10.70
2019-03-20T00:27:09.748Z,13.30
2019-03-20T00:29:37.561Z,10.95
2019-03-20T00:32:05.294Z,9.95
2019-03-20T00:34:33.109Z,7.57
2019-03-20T00:37:00.883Z,11.00
2019-03-20T00:39:28.707Z,9.10
2019-03-20T00:41:56.463Z,7.43
2019-03-20T00:44:24.278Z,10.40
2019-03-20T00:46:52.051Z,9.80
2019-03-20T00:49:19.846Z,12.75
2019-03-20T00:51:47.630Z,13.18
2019-03-20T00:57:23.624Z,20.75
2019-03-20T00:59:51.495Z,11.10
2019-03-20T01:02:19.277Z,13.30
2019-03-20T01:04:47.125Z,12.60
2019-03-20T01:07:39.535Z,8.45
2019-03-20T01:10:10.536Z,7.97
2019-03-20T01:12:38.899Z,8.50
2019-03-20T01:15:07.266Z,5.87
2019-03-20T01:17:35.043Z,9.03
2019-03-20T01:20:03.350Z,11.45
2019-03-20T01:22:31.148Z,13.85
2019-03-20T01:24:58.981Z,9.33
2019-03-20T01:27:26.817Z,7.85
2019-03-20T01:29:54.630Z,7.95
2019-03-20T01:32:22.379Z,9.83
2019-03-20T01:34:50.226Z,7.50
2019-03-20T01:37:17.925Z,8.45
2019-03-20T01:39:46.583Z,12.18
2019-03-20T01:42:14.368Z,12.70
2019-03-20T01:44:42.208Z,11.28
2019-03-20T01:47:10.189Z,7.60
2019-03-20T01:49:38.008Z,7.80
2019-03-20T01:52:05.816Z,9.88
2019-03-20T01:54:33.669Z,11.83
2019-03-20T01:57:06.485Z,9.93
2019-03-20T01:59:34.260Z,11.10
2019-03-20T02:02:02.038Z,11.60
2019-03-20T02:04:29.835Z,11.53
2019-03-20T02:06:57.782Z,10.70
2019-03-20T02:09:25.600Z,9.68
2019-03-20T02:11:53.333Z,5.37
2019-03-20T02:14:21.161Z,7.60
2019-03-20T02:16:49.185Z,8.10
2019-03-20T02:19:16.928Z,8.95
2019-03-20T02:21:44.675Z,6.37
2019-03-20T02:24:12.485Z,8.30
2019-03-20T02:26:40.288Z,10.05
2019-03-20T02:29:08.081Z,7.85
2019-03-20T02:31:35.817Z,8.58
2019-03-20T02:34:03.582Z,8.53
2019-03-20T02:36:46.385Z,10.68
2019-03-20T02:39:14.185Z,10.72
2019-03-20T02:41:41.926Z,11.57
2019-03-20T02:44:09.663Z,8.03
2019-03-20T02:46:42.990Z,5.85
2019-03-20T02:51:49.086Z,8.63
2019-03-20T02:54:16.888Z,9.58
2019-03-20T02:56:44.692Z,9.68
2019-03-20T02:59:12.448Z,6.72
2019-03-20T03:01:40.241Z,8.50
2019-03-20T03:04:07.988Z,11.35
2019-03-20T03:06:35.805Z,15.68
2019-03-20T03:09:06.715Z,7.87
2019-03-20T03:11:34.487Z,14.70
2019-03-20T03:14:02.488Z,9.63
2019-03-20T03:16:30.237Z,8.78
2019-03-20T03:18:58.010Z,9.70
2019-03-20T03:21:25.787Z,8.48
2019-03-20T03:23:53.571Z,9.48
2019-03-20T03:26:52.132Z,10.43
2019-03-20T03:29:19.942Z,9.85
2019-03-20T03:31:47.705Z,9.60
2019-03-20T03:34:16.614Z,9.08
2019-03-20T03:36:44.599Z,7.80
2019-03-20T03:39:12.434Z,7.17
2019-03-20T03:41:40.220Z,10.48
2019-03-20T03:44:08.020Z,8.23
2019-03-20T03:46:35.939Z,13.38
2019-03-20T03:49:03.846Z,10.82
2019-03-20T03:51:31.596Z,9.15
2019-03-20T03:53:59.455Z,10.15
2019-03-20T03:56:27.374Z,10.35
2019-03-20T03:58:55.154Z,5.72
2019-03-20T04:01:22.928Z,12.95
2019-03-20T04:03:50.724Z,12.75
2019-03-20T04:06:18.705Z,10.72
2019-03-20T04:08:46.486Z,7.53
2019-03-20T04:11:25.840Z,10.15
2019-03-20T04:13:58.567Z,8.08
2019-03-20T04:17:25.978Z,5.75
2019-03-20T04:19:53.798Z,9.30
2019-03-20T04:22:21.632Z,9.80
2019-03-20T04:24:49.396Z,7.58
2019-03-20T04:27:17.283Z,7.25
2019-03-20T04:29:45.072Z,8.98
2019-03-20T04:32:12.866Z,10.32
2019-03-20T04:34:40.708Z,10.72
2019-03-20T04:37:08.686Z,11.22
2019-03-20T04:39:36.503Z,8.08
2019-03-20T04:42:04.300Z,10.45
2019-03-20T04:44:32.079Z,8.23
2019-03-20T04:47:00.052Z,10.38
2019-03-20T04:49:27.868Z,9.58
2019-03-20T04:51:55.636Z,8.78
2019-03-20T04:54:23.469Z,6.97
2019-03-20T04:56:51.224Z,7.17
2019-03-20T04:59:19.000Z,11.70
2019-03-20T05:01:46.783Z,10.15
2019-03-20T05:04:14.581Z,8.25
2019-03-20T05:06:42.380Z,10.50
2019-03-20T05:09:10.849Z,9.00
2019-03-20T05:11:38.709Z,9.20
2019-03-20T05:14:06.555Z,16.67
2019-03-20T05:16:34.318Z,17.42
2019-03-20T05:19:02.650Z,16.82
2019-03-20T05:21:30.442Z,15.20
2019-03-20T05:23:58.256Z,19.98
2019-03-20T05:26:26.153Z,11.83
2019-03-20T05:28:53.893Z,14.55
2019-03-20T05:31:21.685Z,9.05
2019-03-20T05:33:49.476Z,7.60
2019-03-20T05:36:17.506Z,7.65
2019-03-20T05:38:45.292Z,7.65
2019-03-20T05:41:13.143Z,10.65
2019-03-20T05:43:40.931Z,13.10
2019-03-20T05:46:11.505Z,8.00
2019-03-20T05:48:39.261Z,23.47
2019-03-20T05:51:07.085Z,15.43
2019-03-20T05:53:34.850Z,8.03
2019-03-20T05:56:02.625Z,10.85
2019-03-20T05:58:30.392Z,15.50
2019-03-20T06:00:58.187Z,12.15
2019-03-20T06:03:26.874Z,13.08
2019-03-20T06:05:55.234Z,14.33
2019-03-20T06:08:23.102Z,12.40
2019-03-20T06:10:50.939Z,25.40
2019-03-20T06:13:18.733Z,33.63
2019-03-20T06:15:46.674Z,29.95
2019-03-20T06:18:14.474Z,29.12
2019-03-20T06:20:42.285Z,28.02
2019-03-20T06:23:11.202Z,24.18
2019-03-20T06:25:39.342Z,18.05
2019-03-20T06:28:07.114Z,29.27
2019-03-20T06:30:34.979Z,25.70
2019-03-20T06:33:02.750Z,16.85
2019-03-20T06:35:30.547Z,25.20
2019-03-20T06:37:58.341Z,16.48
2019-03-20T06:40:26.199Z,8.55
2019-03-20T06:42:55.412Z,27.02
2019-03-20T06:45:23.305Z,13.22
2019-03-20T06:47:51.111Z,15.60
2019-03-20T06:50:19.122Z,21.27
2019-03-20T06:52:48.692Z,15.93
2019-03-20T06:55:16.671Z,16.40
2019-03-20T06:57:44.461Z,13.73
2019-03-20T07:00:59.989Z,9.23
2019-03-20T07:03:36.786Z,11.37
2019-03-20T07:07:00.642Z,9.97
2019-03-20T07:10:16.331Z,10.80
2019-03-20T07:12:44.091Z,14.83
2019-03-20T07:15:11.844Z,9.73
2019-03-20T07:17:39.581Z,12.37
2019-03-20T07:20:08.734Z,11.43
2019-03-20T07:22:36.545Z,11.60
2019-03-20T07:25:04.823Z,11.73
2019-03-20T07:27:32.540Z,8.30
2019-03-20T07:30:00.367Z,7.63
2019-03-20T07:32:29.994Z,11.43
2019-03-20T07:34:57.791Z,9.87
2019-03-20T07:37:25.582Z,9.77
2019-03-20T07:39:53.439Z,8.80
2019-03-20T07:42:21.223Z,9.97
2019-03-20T07:44:49.044Z,9.80
2019-03-20T07:47:16.976Z,14.77
2019-03-20T07:49:44.733Z,8.90
2019-03-20T07:52:12.484Z,14.87
2019-03-20T07:54:40.229Z,7.30
2019-03-20T07:57:27.492Z,12.63
2019-03-20T07:59:55.308Z,8.83
2019-03-20T08:02:23.074Z,10.77
2019-03-20T08:04:50.884Z,8.10
2019-03-20T08:07:18.619Z,12.77
2019-03-20T08:09:46.414Z,11.83
2019-03-20T08:12:14.154Z,12.40
2019-03-20T08:14:41.973Z,11.73
2019-03-20T08:17:09.750Z,12.03
2019-03-20T08:19:37.515Z,9.63
2019-03-20T08:22:05.328Z,13.80
2019-03-20T08:24:33.107Z,10.17
2019-03-20T08:27:00.935Z,14.60
2019-03-20T08:29:29.445Z,13.63
2019-03-20T08:31:57.330Z,12.40
2019-03-20T08:34:25.070Z,18.83
2019-03-20T08:37:03.114Z,12.93
2019-03-20T08:39:30.927Z,15.87
2019-03-20T08:41:58.706Z,13.97
2019-03-20T08:44:26.473Z,15.07
2019-03-20T08:46:54.331Z,13.67
2019-03-20T08:49:22.057Z,11.87
2019-03-20T08:51:49.870Z,14.13
2019-03-20T08:54:17.657Z,13.00
2019-03-20T08:56:45.494Z,14.80
2019-03-20T08:59:13.271Z,17.17
2019-03-20T09:01:41.122Z,14.57
2019-03-20T09:04:08.842Z,12.73
2019-03-20T09:06:36.811Z,15.20
2019-03-20T09:09:07.309Z,8.90
2019-03-20T09:11:35.086Z,8.87
2019-03-20T09:14:02.821Z,14.93
2019-03-20T09:16:30.895Z,13.20
2019-03-20T09:18:58.862Z,10.40
2019-03-20T09:21:26.995Z,15.17
2019-03-20T09:23:54.831Z,14.30
2019-03-20T09:26:22.958Z,13.17
2019-03-20T09:28:50.942Z,11.12
2019-03-20T09:31:18.760Z,14.70
2019-03-20T09:33:46.645Z,9.90
2019-03-20T09:36:14.655Z,13.57
2019-03-20T09:38:43.666Z,11.53
2019-03-20T09:41:12.419Z,16.13
2019-03-20T09:43:40.864Z,10.93
2019-03-20T09:46:09.275Z,14.63
2019-03-20T09:48:37.600Z,11.57
2019-03-20T09:51:05.373Z,12.17
2019-03-20T09:53:33.177Z,15.33
2019-03-20T09:56:01.013Z,16.03
2019-03-20T09:58:28.795Z,13.20
2019-03-20T10:00:56.603Z,13.13
2019-03-20T10:03:24.373Z,10.90
2019-03-20T10:05:52.170Z,8.40
2019-03-20T10:08:19.975Z,9.70
2019-03-20T10:10:47.771Z,10.30
2019-03-20T10:13:15.565Z,10.70
2019-03-20T10:15:43.364Z,9.23
2019-03-20T10:18:11.140Z,9.23
2019-03-20T10:20:38.958Z,8.07
2019-03-20T10:23:06.716Z,12.53
2019-03-20T10:25:44.070Z,8.50
2019-03-20T10:28:04.298Z,13.73
2019-03-20T10:30:32.076Z,7.77
2019-03-20T10:32:59.965Z,9.23
2019-03-20T10:35:27.835Z,5.30
2019-03-20T10:37:55.639Z,9.33
2019-03-20T10:40:23.492Z,7.73
2019-03-20T10:42:51.421Z,7.37
2019-03-20T10:45:19.494Z,6.20
2019-03-20T10:47:47.655Z,8.23
2019-03-20T10:50:17.658Z,5.53
2019-03-20T10:52:45.488Z,10.40
2019-03-20T10:55:13.386Z,8.87
2019-03-20T10:57:41.256Z,9.50
2019-03-20T11:00:15.999Z,7.93
2019-03-20T11:02:43.972Z,10.38
2019-03-20T11:05:11.866Z,9.23
2019-03-20T11:07:50.177Z,7.53
2019-03-20T11:10:20.708Z,11.63
2019-03-20T11:12:48.510Z,9.55
2019-03-20T11:15:16.382Z,9.55
2019-03-20T11:17:44.153Z,6.25
2019-03-20T11:20:14.403Z,7.78
2019-03-20T11:22:42.207Z,6.15
2019-03-20T11:25:11.675Z,7.67
2019-03-20T11:27:39.480Z,5.80
2019-03-20T11:30:32.821Z,6.80
2019-03-20T11:33:01.695Z,6.08
2019-03-20T11:35:29.490Z,6.45
2019-03-20T11:37:57.307Z,5.37
2019-03-20T11:40:26.989Z,4.72
2019-03-20T11:42:55.015Z,5.65
2019-03-20T11:45:23.667Z,7.25
2019-03-20T11:47:51.842Z,9.13
2019-03-20T11:50:32.772Z,7.08
2019-03-20T11:53:00.645Z,8.15
2019-03-20T11:55:28.437Z,6.25
2019-03-20T11:57:56.236Z,3.87
2019-03-20T12:00:24.203Z,4.55
2019-03-20T12:02:52.021Z,6.53
2019-03-20T12:05:19.811Z,4.92
2019-03-20T12:07:47.613Z,6.62
2019-03-20T12:10:20.278Z,4.20
2019-03-20T12:12:48.020Z,3.95
2019-03-20T12:15:16.493Z,9.58
2019-03-20T12:17:44.547Z,6.00
2019-03-20T12:20:15.100Z,7.10
2019-03-20T12:22:44.005Z,4.10
2019-03-20T12:25:18.654Z,5.30
2019-03-20T12:27:48.440Z,5.80
2019-03-20T12:30:19.159Z,5.58
2019-03-20T12:32:46.961Z,6.05
2019-03-20T12:35:15.206Z,3.52
2019-03-20T12:37:43.064Z,3.22
2019-03-20T12:40:16.280Z,3.90
2019-03-20T12:42:44.083Z,4.42
2019-03-20T12:45:13.712Z,4.50
2019-03-20T12:47:46.783Z,6.05
2019-03-20T12:50:14.630Z,5.70
2019-03-20T12:52:42.473Z,5.00
2019-03-20T12:55:11.261Z,5.15
2019-03-20T12:57:39.074Z,6.60
2019-03-20T13:00:14.254Z,4.58
2019-03-20T13:02:42.228Z,6.55
2019-03-20T13:05:10.123Z,5.87
2019-03-20T13:07:38.106Z,4.22
2019-03-20T13:10:08.062Z,8.13
2019-03-20T13:12:35.832Z,3.70
2019-03-20T13:15:05.515Z,4.83
2019-03-20T13:17:33.465Z,3.92
2019-03-20T13:20:01.304Z,2.62
2019-03-20T13:22:29.074Z,4.60
2019-03-20T13:24:56.892Z,4.87
2019-03-20T13:27:24.790Z,3.95
2019-03-20T13:29:52.617Z,3.87
2019-03-20T13:32:20.576Z,5.65
2019-03-20T13:34:48.379Z,5.50
2019-03-20T13:37:16.450Z,4.50
2019-03-20T13:39:44.272Z,4.95
2019-03-20T13:42:12.057Z,5.28
2019-03-20T13:44:39.933Z,3.67
2019-03-20T13:47:08.284Z,2.33
2019-03-20T13:49:36.199Z,3.05
2019-03-20T13:52:03.934Z,4.75
2019-03-20T13:54:31.786Z,5.25
2019-03-20T13:56:59.553Z,2.67
2019-03-20T13:59:27.392Z,4.47
2019-03-20T14:01:55.292Z,4.12
2019-03-20T14:04:23.253Z,6.55
2019-03-20T14:06:51.037Z,6.12
2019-03-20T14:09:18.867Z,4.37
2019-03-20T14:11:46.779Z,3.90
2019-03-20T14:14:14.652Z,4.28
2019-03-20T14:16:42.508Z,4.80
2019-03-20T14:19:10.683Z,3.25
2019-03-20T14:21:38.532Z,3.10
2019-03-20T14:24:06.530Z,4.23
2019-03-20T14:26:34.907Z,3.30
2019-03-20T14:29:02.752Z,3.57
2019-03-20T14:31:32.875Z,3.47
2019-03-20T14:34:00.643Z,3.50
2019-03-20T14:36:33.670Z,6.60
2019-03-20T14:39:01.490Z,8.07
2019-03-20T14:41:29.409Z,3.47
2019-03-20T14:43:57.238Z,7.00
2019-03-20T14:46:30.251Z,3.87
2019-03-20T14:48:58.098Z,8.40
2019-03-20T14:51:25.970Z,16.00
2019-03-20T14:53:53.794Z,5.80
2019-03-20T14:56:21.551Z,3.43
2019-03-20T14:58:50.058Z,5.33
2019-03-20T15:01:17.834Z,5.70
2019-03-20T15:03:45.672Z,7.17
2019-03-20T15:06:18.786Z,3.60
2019-03-20T15:08:47.040Z,6.17
2019-03-20T15:11:14.811Z,4.80
2019-03-20T15:13:42.658Z,4.90
2019-03-20T15:16:12.022Z,8.80
2019-03-20T15:18:40.152Z,4.20
2019-03-20T15:21:07.941Z,6.17
2019-03-20T15:23:35.841Z,4.57
2019-03-20T15:26:08.963Z,4.40
2019-03-20T15:28:36.768Z,5.47
2019-03-20T15:31:04.551Z,3.93
2019-03-20T15:33:32.306Z,8.33
2019-03-20T15:36:00.378Z,4.17
2019-03-20T15:38:28.175Z,4.77
2019-03-20T15:41:04.838Z,5.87
2019-03-20T15:43:32.688Z,5.40
2019-03-20T15:46:00.617Z,3.97
2019-03-20T15:48:28.528Z,5.43
2019-03-20T15:50:56.315Z,4.70
2019-03-20T15:53:24.138Z,5.00
2019-03-20T15:55:52.679Z,6.33
2019-03-20T15:58:20.463Z,3.60
2019-03-20T16:00:48.315Z,5.30
2019-03-20T16:03:17.046Z,4.40
2019-03-20T16:05:45.454Z,3.63
2019-03-20T16:08:13.255Z,3.30
2019-03-20T16:10:41.133Z,4.77
2019-03-20T16:13:08.942Z,4.97
2019-03-20T16:15:37.081Z,4.50
2019-03-20T16:18:04.902Z,4.83
2019-03-20T16:20:32.749Z,5.23
2019-03-20T16:23:00.620Z,4.93
2019-03-20T16:25:28.505Z,4.53
2019-03-20T16:27:58.819Z,4.73
2019-03-20T16:30:26.598Z,6.30
2019-03-20T16:32:56.402Z,4.93
2019-03-20T16:35:24.251Z,6.07
2019-03-20T16:37:52.185Z,5.80
2019-03-20T16:40:22.001Z,3.97
2019-03-20T16:42:50.129Z,8.87
2019-03-20T16:45:23.883Z,13.97
2019-03-20T16:47:51.852Z,5.27
2019-03-20T16:50:19.631Z,7.97
2019-03-20T16:52:47.680Z,5.33
2019-03-20T16:55:15.402Z,5.33
2019-03-20T16:57:44.043Z,4.23
2019-03-20T17:00:16.781Z,4.63
2019-03-20T17:02:44.573Z,5.23
2019-03-20T17:05:12.388Z,9.37
2019-03-20T17:07:40.415Z,11.93
2019-03-20T17:10:13.487Z,6.90
2019-03-20T17:12:41.237Z,9.57
2019-03-20T17:15:14.798Z,6.87
2019-03-20T17:17:43.107Z,5.83
2019-03-20T17:20:11.039Z,9.63
2019-03-20T17:22:42.119Z,8.50
2019-03-20T17:25:09.343Z,4.30
2019-03-20T17:27:37.235Z,6.03
2019-03-20T17:30:12.360Z,5.90
2019-03-20T17:32:40.144Z,8.30
2019-03-20T17:35:08.218Z,7.87
2019-03-20T17:37:41.236Z,6.73
2019-03-20T17:40:11.316Z,10.30
2019-03-20T17:42:39.126Z,9.67
2019-03-20T17:45:07.500Z,7.23
2019-03-20T17:47:35.287Z,7.37
2019-03-20T17:50:05.758Z,12.20
2019-03-20T17:52:33.604Z,10.23
2019-03-20T17:55:01.452Z,5.60
2019-03-20T17:57:29.492Z,9.37
2019-03-20T17:59:57.297Z,8.43
2019-03-20T18:02:25.126Z,12.63
2019-03-20T18:04:53.088Z,10.30
2019-03-20T18:07:36.007Z,11.60
2019-03-20T18:10:06.832Z,16.63
2019-03-20T18:12:34.643Z,12.37
2019-03-20T18:15:03.193Z,16.37
2019-03-20T18:17:36.266Z,12.40
2019-03-20T18:20:04.879Z,17.47
2019-03-20T18:22:32.740Z,11.97
2019-03-20T18:25:00.568Z,8.30
2019-03-20T18:27:28.467Z,8.77
2019-03-20T18:29:56.323Z,8.93
2019-03-20T18:32:24.180Z,7.40
2019-03-20T18:34:52.063Z,15.23
2019-03-20T18:37:25.231Z,13.23
2019-03-20T18:39:53.113Z,9.10
2019-03-20T18:42:20.983Z,11.37
2019-03-20T18:44:49.063Z,7.87
2019-03-20T18:47:16.910Z,7.23
2019-03-20T18:49:44.769Z,8.77
2019-03-20T18:52:12.615Z,15.07
2019-03-20T18:54:40.393Z,18.43
2019-03-20T18:57:08.187Z,24.63
2019-03-20T18:59:36.192Z,17.00
2019-03-20T19:02:04.473Z,13.90
2019-03-20T19:04:32.330Z,10.57
2019-03-20T19:07:00.111Z,13.77
2019-03-20T19:09:27.995Z,9.80
2019-03-20T19:11:55.943Z,16.67
2019-03-20T19:14:23.755Z,11.10
2019-03-20T19:16:52.067Z,12.23
2019-03-20T19:19:19.816Z,17.30
2019-03-20T19:21:47.684Z,17.07
2019-03-20T19:24:15.481Z,25.60
2019-03-20T19:26:43.507Z,11.17
2019-03-20T19:29:11.456Z,16.73
2019-03-20T19:31:39.287Z,15.30
2019-03-20T19:34:07.141Z,16.13
2019-03-20T19:36:35.119Z,18.23
2019-03-20T19:39:10.323Z,14.70
2019-03-20T19:41:38.870Z,20.17
2019-03-20T19:44:07.179Z,22.40
2019-03-20T19:46:35.667Z,15.10
2019-03-20T19:49:03.969Z,17.27
2019-03-20T19:51:32.381Z,17.23
2019-03-20T19:54:00.714Z,14.53
2019-03-20T19:56:29.165Z,12.53
2019-03-20T19:58:57.601Z,12.53
2019-03-20T20:01:26.077Z,12.50
2019-03-20T20:03:54.362Z,14.23
2019-03-20T20:06:22.430Z,17.43
2019-03-20T20:08:50.338Z,16.73
2019-03-20T20:11:18.186Z,16.07
2019-03-20T20:13:45.984Z,11.97
2019-03-20T20:16:14.125Z,10.67
2019-03-20T20:18:41.991Z,10.53
2019-03-20T20:21:09.882Z,9.53
2019-03-20T20:23:37.788Z,11.53
2019-03-20T20:26:05.893Z,7.20
2019-03-20T20:28:33.779Z,13.30
2019-03-20T20:31:01.649Z,10.23
2019-03-20T20:33:29.471Z,8.30
2019-03-20T20:35:58.713Z,8.13
2019-03-20T20:38:26.547Z,7.73
2019-03-20T20:40:54.454Z,10.10
2019-03-20T20:43:22.265Z,9.00
2019-03-20T20:46:05.138Z,7.40
2019-03-20T20:48:33.018Z,9.50
2019-03-20T20:51:00.906Z,12.97
2019-03-20T20:53:28.710Z,8.60
2019-03-20T20:55:56.807Z,8.67
2019-03-20T20:58:24.637Z,13.33
2019-03-20T21:00:52.439Z,17.30
2019-03-20T21:03:20.227Z,10.33
2019-03-20T21:05:48.076Z,8.57
2019-03-20T21:08:15.971Z,12.83
2019-03-20T21:10:43.856Z,10.70
2019-03-20T21:13:11.905Z,10.93
2019-03-20T21:15:46.742Z,10.90
2019-03-20T21:19:23.861Z,9.70
2019-03-20T21:23:00.479Z,11.27
2019-03-20T21:25:29.122Z,13.80
2019-03-20T21:29:15.253Z,11.70
2019-03-20T21:32:15.910Z,14.40
2019-03-20T21:35:51.718Z,7.70
2019-03-20T21:38:18.026Z,9.97
2019-03-20T21:41:41.710Z,9.93
2019-03-20T21:45:44.184Z,10.37
2019-03-20T21:48:12.803Z,14.47
2019-03-20T21:51:15.081Z,12.00
2019-03-20T21:54:33.584Z,12.60
2019-03-20T21:57:58.751Z,13.50
2019-03-20T22:01:31.431Z,14.03
2019-03-20T22:04:00.978Z,11.27
2019-03-20T22:07:04.743Z,12.63
2019-03-20T22:10:33.158Z,14.60
2019-03-20T22:13:31.339Z,16.27
2019-03-20T22:17:09.738Z,13.10
2019-03-20T22:19:56.367Z,20.47
2019-03-20T22:23:48.416Z,16.00
2019-03-20T22:27:26.592Z,15.90
2019-03-20T22:29:55.253Z,11.07
2019-03-20T22:33:28.210Z,13.13
2019-03-20T22:36:11.613Z,9.37
2019-03-20T22:39:38.973Z,12.43
2019-03-20T22:42:39.779Z,13.60
2019-03-20T22:45:33.432Z,12.47
2019-03-20T22:49:14.767Z,11.30
2019-03-20T22:52:31.067Z,13.77
2019-03-20T22:56:00.957Z,14.47
2019-03-20T22:58:44.622Z,11.27
2019-03-20T23:01:27.750Z,11.00
2019-03-20T23:04:03.611Z,10.53
2019-03-20T23:07:12.031Z,10.00
2019-03-20T23:09:40.636Z,9.87
2019-03-20T23:12:12.770Z,14.83
2019-03-20T23:14:41.377Z,7.47
2019-03-20T23:17:10.275Z,7.30
2019-03-20T23:19:42.200Z,10.37
2019-03-20T23:22:11.329Z,10.50
2019-03-20T23:24:39.943Z,7.60
2019-03-20T23:27:33.061Z,10.17
2019-03-20T23:30:03.850Z,6.03
2019-03-20T23:32:32.467Z,9.00
2019-03-20T23:35:01.130Z,10.77
2019-03-20T23:37:29.757Z,11.10
2019-03-20T23:39:58.440Z,9.07
2019-03-20T23:42:27.615Z,10.33
2019-03-20T23:44:56.299Z,11.13
2019-03-20T23:47:50.335Z,11.27
2019-03-20T23:50:20.057Z,10.43
2019-03-20T23:52:48.686Z,15.40
2019-03-20T23:55:17.296Z,11.50
2019-03-20T23:57:45.946Z,11.60
